createdAt,value
2022-08-16T00:01:22.288Z,21.00
2022-08-16T00:03:52.274Z,20.80
2022-08-16T00:06:19.503Z,20.70
2022-08-16T00:08:46.190Z,20.60
2022-08-16T00:11:15.060Z,20.60
2022-08-16T00:13:43.202Z,20.50
2022-08-16T00:17:00.754Z,20.60
2022-08-16T00:19:06.669Z,20.70
2022-08-16T00:21:34.255Z,20.60
2022-08-16T00:24:04.747Z,20.70
2022-08-16T00:26:36.073Z,20.70
2022-08-16T00:29:13.165Z,20.60
2022-08-16T00:31:59.774Z,20.50
2022-08-16T00:34:41.867Z,20.40
2022-08-16T00:37:20.731Z,20.40
2022-08-16T00:39:57.614Z,20.20
2022-08-16T00:42:30.121Z,20.20
2022-08-16T00:45:06.498Z,20.20
2022-08-16T00:47:38.896Z,20.20
2022-08-16T00:50:08.209Z,20.20
2022-08-16T00:52:45.783Z,20.10
2022-08-16T00:55:20.170Z,19.90
2022-08-16T00:57:59.992Z,20.00
2022-08-16T01:00:30.676Z,19.90
2022-08-16T01:02:59.797Z,19.90
2022-08-16T01:05:27.948Z,19.80
2022-08-16T01:07:57.357Z,19.60
2022-08-16T01:10:31.307Z,19.80
2022-08-16T01:13:05.272Z,19.60
2022-08-16T01:15:34.275Z,19.60
2022-08-16T01:18:04.357Z,19.70
2022-08-16T01:20:36.463Z,19.70
2022-08-16T01:23:14.556Z,19.70
2022-08-16T01:26:00.237Z,19.50
2022-08-16T01:28:39.000Z,19.50
2022-08-16T01:31:14.390Z,19.50
2022-08-16T01:33:44.559Z,19.40
2022-08-16T01:36:12.934Z,19.40
2022-08-16T01:38:48.859Z,19.40
2022-08-16T01:41:24.047Z,19.30
2022-08-16T01:43:54.231Z,19.30
2022-08-16T01:46:38.019Z,19.20
2022-08-16T01:49:42.925Z,19.20
2022-08-16T01:52:29.266Z,19.00
2022-08-16T01:54:57.414Z,18.90
2022-08-16T01:57:24.608Z,18.90
2022-08-16T01:59:54.748Z,18.90
2022-08-16T02:02:28.370Z,18.90
2022-08-16T02:04:57.413Z,18.90
2022-08-16T02:07:24.770Z,18.90
2022-08-16T02:09:57.385Z,18.70
2022-08-16T02:12:49.394Z,18.80
2022-08-16T02:15:16.299Z,18.70
2022-08-16T02:17:43.596Z,18.80
2022-08-16T02:20:12.262Z,18.80
2022-08-16T02:22:39.991Z,18.60
2022-08-16T02:25:14.779Z,18.50
2022-08-16T02:27:44.091Z,18.70
2022-08-16T02:30:37.172Z,18.70
2022-08-16T02:33:04.684Z,18.70
2022-08-16T02:35:32.760Z,18.40
2022-08-16T02:38:01.767Z,18.40
2022-08-16T02:40:36.728Z,18.40
2022-08-16T02:43:04.139Z,18.40
2022-08-16T02:45:31.850Z,18.40
2022-08-16T02:48:01.274Z,18.50
2022-08-16T02:51:03.321Z,18.40
2022-08-16T02:53:33.519Z,18.30
2022-08-16T02:56:00.577Z,18.30
2022-08-16T02:58:28.338Z,18.10
2022-08-16T03:00:57.514Z,18.20
2022-08-16T03:03:26.230Z,18.20
2022-08-16T03:05:53.629Z,18.20
2022-08-16T03:08:49.831Z,18.20
2022-08-16T03:11:16.666Z,18.00
2022-08-16T03:13:51.277Z,18.20
2022-08-16T03:16:38.758Z,18.10
2022-08-16T03:19:08.300Z,18.00
2022-08-16T03:21:37.366Z,18.00
2022-08-16T03:24:28.690Z,18.00
2022-08-16T03:26:53.319Z,17.80
2022-08-16T03:29:27.296Z,17.80
2022-08-16T03:31:59.117Z,17.80
2022-08-16T03:34:27.351Z,17.70
2022-08-16T03:36:54.760Z,17.70
2022-08-16T03:39:21.835Z,17.70
2022-08-16T03:41:50.350Z,17.70
2022-08-16T03:44:44.351Z,17.70
2022-08-16T03:47:10.108Z,17.60
2022-08-16T03:49:37.840Z,17.50
2022-08-16T03:52:06.156Z,17.50
2022-08-16T03:54:35.559Z,17.50
2022-08-16T03:57:05.140Z,17.40
2022-08-16T03:59:32.367Z,17.50
2022-08-16T04:02:00.978Z,17.40
2022-08-16T04:04:33.414Z,17.30
2022-08-16T04:07:02.867Z,17.40
2022-08-16T04:09:35.170Z,17.40
2022-08-16T04:12:10.576Z,17.30
2022-08-16T04:14:46.704Z,17.20
2022-08-16T04:17:16.153Z,17.30
2022-08-16T04:19:47.427Z,17.30
2022-08-16T04:22:19.521Z,17.20
2022-08-16T04:24:54.211Z,17.20
2022-08-16T04:27:22.431Z,17.20
2022-08-16T04:29:52.116Z,17.30
2022-08-16T04:32:19.777Z,17.20
2022-08-16T04:34:47.029Z,17.20
2022-08-16T04:37:14.303Z,17.20
2022-08-16T04:39:47.195Z,17.20
2022-08-16T04:42:25.917Z,17.30
2022-08-16T04:44:56.001Z,17.30
2022-08-16T04:47:35.498Z,17.20
2022-08-16T04:50:06.730Z,17.10
2022-08-16T04:52:36.015Z,17.10
2022-08-16T04:55:09.723Z,17.00
2022-08-16T04:57:39.032Z,17.10
2022-08-16T05:00:30.479Z,17.30
2022-08-16T05:02:58.797Z,17.30
2022-08-16T05:05:32.697Z,17.40
2022-08-16T05:08:29.543Z,17.40
2022-08-16T05:10:48.364Z,17.50
2022-08-16T05:13:17.463Z,17.50
2022-08-16T05:15:44.109Z,17.50
2022-08-16T05:18:15.848Z,17.50
2022-08-16T05:20:57.044Z,17.60
2022-08-16T05:23:31.769Z,17.60
2022-08-16T05:25:59.726Z,17.50
2022-08-16T05:28:30.959Z,17.60
2022-08-16T05:31:04.629Z,17.70
2022-08-16T05:33:33.705Z,17.80
2022-08-16T05:36:03.872Z,17.90
2022-08-16T05:38:38.966Z,18.00
2022-08-16T05:41:07.309Z,18.00
2022-08-16T05:43:43.470Z,17.90
2022-08-16T05:46:30.346Z,18.10
2022-08-16T05:49:08.880Z,18.20
2022-08-16T05:51:39.986Z,18.20
2022-08-16T05:54:11.218Z,18.30
2022-08-16T05:56:39.847Z,18.40
2022-08-16T05:59:07.521Z,18.50
2022-08-16T06:01:38.359Z,18.60
2022-08-16T06:04:12.614Z,18.60
2022-08-16T06:06:43.481Z,18.70
2022-08-16T06:09:22.658Z,18.80
2022-08-16T06:11:49.570Z,18.80
2022-08-16T06:14:17.617Z,18.90
2022-08-16T06:16:44.565Z,18.90
2022-08-16T06:19:17.977Z,18.90
2022-08-16T06:21:45.416Z,19.00
2022-08-16T06:24:53.620Z,19.00
2022-08-16T06:27:08.550Z,19.00
2022-08-16T06:29:35.333Z,19.10
2022-08-16T06:32:02.426Z,19.20
2022-08-16T06:34:55.034Z,19.20
2022-08-16T06:37:18.361Z,19.30
2022-08-16T06:39:46.578Z,19.30
2022-08-16T06:42:18.270Z,19.40
2022-08-16T06:44:45.922Z,19.50
2022-08-16T06:47:17.190Z,19.50
2022-08-16T06:49:52.741Z,19.70
2022-08-16T06:52:58.307Z,19.70
2022-08-16T06:55:13.019Z,19.80
2022-08-16T06:57:40.832Z,19.90
2022-08-16T07:00:24.260Z,19.90
2022-08-16T07:02:53.643Z,20.00
2022-08-16T07:05:27.004Z,20.10
2022-08-16T07:08:07.737Z,20.20
2022-08-16T07:10:38.761Z,20.20
2022-08-16T07:13:11.934Z,20.20
2022-08-16T07:15:50.567Z,20.30
2022-08-16T07:18:21.322Z,20.40
2022-08-16T07:20:53.495Z,20.40
2022-08-16T07:23:21.614Z,20.50
2022-08-16T07:26:09.625Z,20.50
2022-08-16T07:28:37.656Z,20.90
2022-08-16T07:31:05.052Z,21.00
2022-08-16T07:33:52.655Z,21.00
2022-08-16T07:36:22.727Z,20.90
2022-08-16T07:38:50.229Z,21.10
2022-08-16T07:41:17.535Z,21.30
2022-08-16T07:43:46.280Z,21.20
2022-08-16T07:46:38.500Z,21.20
2022-08-16T07:49:02.342Z,21.30
2022-08-16T07:51:37.057Z,21.30
2022-08-16T07:54:10.758Z,21.20
2022-08-16T07:56:39.587Z,21.30
2022-08-16T07:59:06.958Z,21.40
2022-08-16T08:01:34.642Z,21.40
2022-08-16T08:04:02.815Z,21.50
2022-08-16T08:06:32.350Z,21.50
2022-08-16T08:09:00.477Z,21.50
2022-08-16T08:11:29.566Z,21.60
2022-08-16T08:14:03.163Z,21.70
2022-08-16T08:16:32.197Z,21.80
2022-08-16T08:19:02.838Z,21.80
2022-08-16T08:21:58.893Z,21.80
2022-08-16T08:24:18.762Z,21.90
2022-08-16T08:26:50.284Z,21.90
2022-08-16T08:29:22.874Z,21.90
2022-08-16T08:31:53.022Z,22.00
2022-08-16T08:34:22.312Z,22.10
2022-08-16T08:36:54.362Z,22.10
2022-08-16T08:39:21.922Z,22.00
2022-08-16T08:41:50.348Z,22.10
2022-08-16T08:44:28.787Z,22.20
2022-08-16T08:47:01.313Z,22.10
2022-08-16T08:49:46.987Z,22.20
2022-08-16T08:52:35.137Z,22.20
2022-08-16T08:55:12.670Z,22.20
2022-08-16T08:57:46.308Z,22.20
2022-08-16T09:00:17.678Z,22.30
2022-08-16T09:02:51.757Z,22.30
2022-08-16T09:05:20.921Z,22.30
2022-08-16T09:08:01.580Z,22.40
2022-08-16T09:10:33.745Z,22.50
2022-08-16T09:13:01.315Z,22.60
2022-08-16T09:15:33.266Z,23.00
2022-08-16T09:18:26.734Z,23.20
2022-08-16T09:20:58.447Z,23.30
2022-08-16T09:23:36.328Z,23.50
2022-08-16T09:26:44.398Z,23.70
2022-08-16T09:29:14.910Z,23.70
2022-08-16T09:31:40.949Z,23.80
2022-08-16T09:34:09.147Z,23.60
2022-08-16T09:36:37.275Z,23.60
2022-08-16T09:39:16.237Z,23.60
2022-08-16T09:41:44.025Z,23.70
2022-08-16T09:45:10.571Z,23.80
2022-08-16T09:47:11.919Z,23.90
2022-08-16T09:49:41.068Z,23.90
2022-08-16T09:52:09.359Z,24.00
2022-08-16T09:54:38.177Z,24.00
2022-08-16T09:57:05.204Z,24.10
2022-08-16T09:59:38.367Z,24.20
2022-08-16T10:02:27.769Z,24.40
2022-08-16T10:04:55.027Z,24.20
2022-08-16T10:07:23.056Z,24.30
2022-08-16T10:09:54.682Z,24.50
2022-08-16T10:12:45.501Z,24.40
2022-08-16T10:15:21.063Z,24.40
2022-08-16T10:17:59.944Z,24.60
2022-08-16T10:20:31.345Z,24.90
2022-08-16T10:23:05.566Z,25.00
2022-08-16T10:27:18.694Z,25.00
2022-08-16T10:28:30.491Z,24.80
2022-08-16T10:31:04.109Z,24.90
2022-08-16T10:33:33.545Z,24.90
2022-08-16T10:36:06.232Z,25.00
2022-08-16T10:38:37.400Z,25.00
2022-08-16T10:41:07.285Z,25.10
2022-08-16T10:43:35.714Z,25.30
2022-08-16T10:46:04.097Z,25.10
2022-08-16T10:48:50.919Z,25.00
2022-08-16T10:51:18.715Z,24.90
2022-08-16T10:53:45.721Z,24.90
2022-08-16T10:56:56.146Z,24.90
2022-08-16T11:02:21.702Z,25.30
2022-08-16T11:12:54.901Z,25.90
2022-08-16T11:15:24.483Z,26.40
2022-08-16T11:20:48.872Z,26.40
2022-08-16T11:23:16.458Z,26.60
2022-08-16T11:29:12.804Z,27.10
2022-08-16T11:31:17.863Z,27.10
2022-08-16T11:33:52.687Z,26.70
2022-08-16T11:36:27.890Z,26.40
2022-08-16T11:39:00.380Z,26.30
2022-08-16T11:41:30.971Z,26.30
2022-08-16T11:44:01.012Z,26.50
2022-08-16T11:46:43.740Z,26.80
2022-08-16T11:49:14.095Z,27.20
2022-08-16T11:51:44.041Z,27.00
2022-08-16T11:54:20.816Z,26.90
2022-08-16T11:56:52.515Z,26.70
2022-08-16T11:59:24.442Z,26.60
2022-08-16T12:02:04.303Z,26.60
2022-08-16T12:04:46.319Z,26.70
2022-08-16T12:07:18.867Z,26.80
2022-08-16T12:09:45.923Z,27.30
2022-08-16T12:12:12.708Z,27.60
2022-08-16T12:14:39.394Z,27.60
2022-08-16T12:17:08.318Z,27.90
2022-08-16T12:19:36.016Z,28.10
2022-08-16T12:22:05.387Z,28.00
2022-08-16T12:24:32.787Z,27.70
2022-08-16T12:27:00.580Z,27.70
2022-08-16T12:29:29.323Z,27.80
2022-08-16T12:32:00.880Z,27.50
2022-08-16T12:34:29.483Z,27.50
2022-08-16T12:36:56.707Z,28.00
2022-08-16T12:39:23.718Z,28.60
2022-08-16T12:41:56.467Z,28.60
2022-08-16T12:44:27.043Z,28.80
2022-08-16T12:47:17.089Z,28.80
2022-08-16T12:49:43.829Z,28.60
2022-08-16T12:52:32.944Z,28.70
2022-08-16T12:54:59.469Z,28.40
2022-08-16T12:57:36.657Z,28.50
2022-08-16T13:00:11.003Z,28.50
2022-08-16T13:02:37.816Z,29.00
2022-08-16T13:05:07.073Z,29.10
2022-08-16T13:07:37.534Z,29.50
2022-08-16T13:10:21.019Z,29.20
2022-08-16T13:12:58.930Z,29.10
2022-08-16T13:15:28.240Z,29.20
2022-08-16T13:17:55.817Z,28.90
2022-08-16T13:20:25.963Z,29.40
2022-08-16T13:23:07.597Z,29.60
2022-08-16T13:25:38.030Z,29.90
2022-08-16T13:28:05.570Z,29.90
2022-08-16T13:30:41.671Z,30.10
2022-08-16T13:33:14.804Z,30.20
2022-08-16T13:35:46.528Z,30.20
2022-08-16T13:38:25.164Z,30.30
2022-08-16T13:40:56.181Z,30.40
2022-08-16T13:43:27.538Z,30.70
2022-08-16T13:45:57.125Z,30.70
2022-08-16T13:48:26.072Z,30.70
2022-08-16T13:51:02.557Z,30.60
2022-08-16T13:53:31.722Z,30.40
2022-08-16T13:55:59.516Z,30.70
2022-08-16T13:58:34.996Z,30.90
2022-08-16T14:01:09.956Z,30.90
2022-08-16T14:03:38.610Z,31.10
2022-08-16T14:06:10.902Z,30.90
2022-08-16T14:08:41.947Z,30.80
2022-08-16T14:11:14.514Z,31.00
2022-08-16T14:13:44.636Z,30.80
2022-08-16T14:16:23.788Z,30.80
2022-08-16T14:18:53.141Z,31.10
2022-08-16T14:21:22.115Z,31.40
2022-08-16T14:23:52.092Z,31.30
2022-08-16T14:26:21.033Z,31.30
2022-08-16T14:28:50.286Z,31.50
2022-08-16T14:31:18.540Z,31.20
2022-08-16T14:33:45.883Z,31.30
2022-08-16T14:36:18.816Z,31.40
2022-08-16T14:38:52.029Z,31.50
2022-08-16T14:41:18.763Z,31.50
2022-08-16T14:43:45.418Z,31.20
2022-08-16T14:46:12.162Z,31.40
2022-08-16T14:48:39.060Z,31.70
2022-08-16T14:51:05.903Z,31.60
2022-08-16T14:53:33.591Z,31.70
2022-08-16T14:56:00.847Z,31.10
2022-08-16T14:58:28.450Z,30.50
2022-08-16T15:01:04.601Z,30.10
2022-08-16T15:03:33.045Z,30.20
2022-08-16T15:06:00.667Z,30.50
2022-08-16T15:08:34.149Z,30.10
2022-08-16T15:11:05.092Z,30.00
2022-08-16T15:13:31.756Z,29.90
2022-08-16T15:16:02.530Z,30.10
2022-08-16T15:18:31.588Z,30.30
2022-08-16T15:20:59.868Z,30.40
2022-08-16T15:23:28.347Z,30.80
2022-08-16T15:26:02.864Z,31.10
2022-08-16T15:28:38.032Z,31.40
2022-08-16T15:31:07.028Z,31.10
2022-08-16T15:33:35.996Z,31.20
2022-08-16T15:36:09.448Z,31.40
2022-08-16T15:38:57.920Z,31.50
2022-08-16T15:41:33.856Z,31.60
2022-08-16T15:44:03.499Z,31.60
2022-08-16T15:46:56.941Z,31.60
2022-08-16T15:49:25.109Z,31.00
2022-08-16T15:51:59.753Z,31.10
2022-08-16T15:54:31.024Z,31.30
2022-08-16T15:57:11.561Z,31.10
2022-08-16T15:59:49.326Z,30.90
2022-08-16T16:02:29.120Z,31.10
2022-08-16T16:05:00.538Z,30.90
2022-08-16T16:07:30.079Z,31.20
2022-08-16T16:09:58.325Z,31.20
2022-08-16T16:15:16.532Z,31.20
2022-08-16T16:17:43.974Z,31.20
2022-08-16T16:20:17.630Z,31.30
2022-08-16T16:22:44.563Z,31.30
2022-08-16T16:25:11.725Z,31.10
2022-08-16T16:27:39.566Z,31.10
2022-08-16T16:30:11.303Z,31.00
2022-08-16T16:32:58.225Z,30.70
2022-08-16T16:35:32.611Z,30.90
2022-08-16T16:37:59.767Z,30.80
2022-08-16T16:40:32.248Z,30.70
2022-08-16T16:42:59.929Z,30.40
2022-08-16T16:45:33.490Z,30.30
2022-08-16T16:48:11.840Z,30.60
2022-08-16T16:50:40.924Z,30.60
2022-08-16T16:53:16.895Z,30.40
2022-08-16T16:55:51.538Z,30.40
2022-08-16T16:58:38.857Z,30.30
2022-08-16T17:01:07.647Z,30.30
2022-08-16T17:03:35.501Z,30.10
2022-08-16T17:06:08.735Z,30.10
2022-08-16T17:08:37.896Z,30.00
2022-08-16T17:11:09.630Z,30.00
2022-08-16T17:13:36.902Z,30.00
2022-08-16T17:16:05.563Z,29.90
2022-08-16T17:19:16.263Z,30.10
2022-08-16T17:21:20.203Z,30.10
2022-08-16T17:23:58.642Z,30.00
2022-08-16T17:26:29.787Z,29.70
2022-08-16T17:29:02.578Z,29.70
2022-08-16T17:31:40.691Z,29.60
2022-08-16T17:34:30.702Z,29.50
2022-08-16T17:37:00.548Z,29.40
2022-08-16T17:39:29.681Z,29.30
2022-08-16T17:41:58.752Z,29.10
2022-08-16T17:44:25.573Z,28.90
2022-08-16T17:46:53.114Z,29.00
2022-08-16T17:49:20.795Z,29.10
2022-08-16T17:51:47.699Z,29.20
2022-08-16T17:54:18.500Z,29.10
2022-08-16T17:57:01.212Z,28.90
2022-08-16T17:59:29.536Z,28.60
2022-08-16T18:01:57.353Z,28.40
2022-08-16T18:04:49.908Z,28.30
2022-08-16T18:07:11.668Z,28.20
2022-08-16T18:09:40.676Z,28.20
2022-08-16T18:12:44.471Z,28.20
2022-08-16T18:15:03.807Z,28.00
2022-08-16T18:17:31.266Z,27.70
2022-08-16T18:19:57.958Z,27.60
2022-08-16T18:22:30.402Z,27.50
2022-08-16T18:24:58.160Z,27.40
2022-08-16T18:27:27.046Z,27.30
2022-08-16T18:29:54.647Z,27.30
2022-08-16T18:32:24.283Z,27.10
2022-08-16T18:34:54.238Z,26.90
2022-08-16T18:37:22.805Z,26.80
2022-08-16T18:39:49.598Z,26.70
2022-08-16T18:42:16.564Z,26.60
2022-08-16T18:44:44.217Z,26.50
2022-08-16T18:47:11.012Z,26.40
2022-08-16T18:49:37.907Z,26.20
2022-08-16T18:52:05.051Z,26.10
2022-08-16T18:54:33.205Z,25.90
2022-08-16T18:57:02.323Z,25.90
2022-08-16T18:59:33.022Z,25.80
2022-08-16T19:02:04.403Z,25.70
2022-08-16T19:04:56.955Z,25.60
2022-08-16T19:07:30.485Z,25.50
2022-08-16T19:09:59.115Z,25.40
2022-08-16T19:12:38.523Z,25.20
2022-08-16T19:15:20.190Z,25.20
2022-08-16T19:17:47.424Z,25.00
2022-08-16T19:20:16.899Z,25.00
2022-08-16T19:23:04.713Z,24.90
2022-08-16T19:25:47.297Z,24.70
2022-08-16T19:28:49.737Z,24.60
2022-08-16T19:31:10.862Z,24.50
2022-08-16T19:33:38.483Z,24.40
2022-08-16T19:36:05.778Z,24.20
2022-08-16T19:38:32.817Z,24.20
2022-08-16T19:40:59.508Z,24.10
2022-08-16T19:43:26.170Z,24.20
2022-08-16T19:45:53.760Z,24.20
2022-08-16T19:48:20.710Z,24.20
2022-08-16T19:50:47.485Z,24.10
2022-08-16T19:53:18.914Z,24.00
2022-08-16T19:55:47.362Z,23.80
2022-08-16T19:58:15.223Z,23.60
2022-08-16T20:00:43.290Z,23.60
2022-08-16T20:03:12.939Z,23.40
2022-08-16T20:05:41.315Z,23.30
2022-08-16T20:08:08.059Z,23.30
2022-08-16T20:10:34.906Z,23.30
2022-08-16T20:13:02.765Z,23.30
2022-08-16T20:15:31.897Z,23.20
2022-08-16T20:18:00.754Z,23.10
2022-08-16T20:20:28.573Z,23.00
2022-08-16T20:22:57.510Z,22.90
2022-08-16T20:25:30.952Z,22.90
2022-08-16T20:28:00.246Z,22.90
2022-08-16T20:30:27.241Z,22.80
2022-08-16T20:32:54.216Z,22.80
2022-08-16T20:35:24.352Z,22.70
2022-08-16T20:37:51.982Z,22.60
2022-08-16T20:40:34.639Z,22.50
2022-08-16T20:43:07.761Z,22.50
2022-08-16T20:45:36.301Z,22.40
2022-08-16T20:48:04.123Z,22.40
2022-08-16T20:50:31.742Z,22.30
2022-08-16T20:52:58.513Z,22.20
2022-08-16T20:55:25.947Z,22.20
2022-08-16T20:57:55.815Z,22.10
2022-08-16T21:00:22.833Z,22.10
2022-08-16T21:02:49.720Z,22.10
2022-08-16T21:05:22.683Z,22.20
2022-08-16T21:07:52.634Z,22.10
2022-08-16T21:10:21.288Z,22.20
2022-08-16T21:12:54.398Z,22.00
2022-08-16T21:15:22.617Z,21.90
2022-08-16T21:17:49.484Z,21.70
2022-08-16T21:20:16.225Z,21.80
2022-08-16T21:22:43.056Z,21.70
2022-08-16T21:25:12.703Z,21.60
2022-08-16T21:28:35.390Z,21.50
2022-08-16T21:30:32.355Z,21.50
2022-08-16T21:33:08.274Z,21.60
2022-08-16T21:35:36.141Z,21.60
2022-08-16T21:38:29.489Z,21.50
2022-08-16T21:40:49.660Z,21.40
2022-08-16T21:43:20.629Z,21.40
2022-08-16T21:45:48.545Z,21.30
2022-08-16T21:48:33.804Z,21.30
2022-08-16T21:51:01.170Z,21.20
2022-08-16T21:53:28.392Z,21.10
2022-08-16T21:55:57.721Z,21.00
2022-08-16T21:58:25.134Z,21.00
2022-08-16T22:00:52.568Z,20.90
2022-08-16T22:03:19.585Z,20.90
2022-08-16T22:06:12.219Z,21.00
2022-08-16T22:08:35.689Z,21.00
2022-08-16T22:11:17.536Z,20.70
2022-08-16T22:13:44.393Z,20.60
2022-08-16T22:16:18.252Z,20.60
2022-08-16T22:18:52.121Z,20.60
2022-08-16T22:21:19.967Z,20.60
2022-08-16T22:23:57.183Z,20.60
2022-08-16T22:26:31.838Z,20.60
2022-08-16T22:29:00.858Z,20.50
2022-08-16T22:31:27.887Z,20.40
2022-08-16T22:33:55.920Z,20.40
2022-08-16T22:36:22.678Z,20.40
2022-08-16T22:38:56.673Z,20.40
2022-08-16T22:41:24.379Z,20.40
2022-08-16T22:43:51.052Z,20.10
2022-08-16T22:46:19.393Z,20.00
2022-08-16T22:48:50.016Z,19.90
2022-08-16T22:51:21.151Z,20.00
2022-08-16T22:53:49.490Z,20.00
2022-08-16T22:56:17.507Z,20.00
2022-08-16T22:58:45.847Z,19.90
2022-08-16T23:01:14.170Z,19.80
2022-08-16T23:03:41.848Z,19.90
2022-08-16T23:06:10.406Z,19.70
2022-08-16T23:08:40.817Z,19.80
2022-08-16T23:11:15.213Z,19.80
2022-08-16T23:13:50.674Z,19.90
2022-08-16T23:16:22.859Z,20.00
2022-08-16T23:18:53.333Z,19.60
2022-08-16T23:21:20.935Z,19.70
2022-08-16T23:23:48.953Z,19.70
2022-08-16T23:26:44.354Z,19.60
2022-08-16T23:29:05.221Z,19.50
2022-08-16T23:31:32.753Z,19.40
2022-08-16T23:33:59.916Z,19.50
2022-08-16T23:36:26.627Z,19.50
2022-08-16T23:38:53.475Z,19.40
2022-08-16T23:41:20.360Z,19.40
2022-08-16T23:43:47.165Z,19.40
2022-08-16T23:46:17.179Z,19.20
2022-08-16T23:49:58.439Z,19.10
2022-08-16T23:51:32.369Z,19.10
2022-08-16T23:53:59.943Z,19.10
2022-08-16T23:56:26.656Z,19.10
2022-08-16T23:59:02.362Z,19.00
